sensor_id;sensor_type;location;lat;lon;timestamp;pressure;altitude;pressure_sealevel;temperature;humidity
41688;BME280;27371;42.686;23.362;2023-04-05T00:01:42;162243.38;;;0.16;85.67
41688;BME280;27371;42.686;23.362;2023-04-05T00:04:10;162207.53;;;0.03;85.89
41688;BME280;27371;42.686;23.362;2023-04-05T00:06:35;162244.75;;;0.17;85.73
41688;BME280;27371;42.686;23.362;2023-04-05T00:09:04;162223.50;;;0.09;85.81
41688;BME280;27371;42.686;23.362;2023-04-05T00:11:31;162259.34;;;0.22;85.81
41688;BME280;27371;42.686;23.362;2023-04-05T00:14:00;162272.63;;;0.28;85.55
41688;BME280;27371;42.686;23.362;2023-04-05T00:16:27;162235.44;;;0.13;85.69
41688;BME280;27371;42.686;23.362;2023-04-05T00:18:53;162279.22;;;0.30;85.43
41688;BME280;27371;42.686;23.362;2023-04-05T00:21:24;162277.91;;;0.30;85.15
41688;BME280;27371;42.686;23.362;2023-04-05T00:23:51;162269.94;;;0.27;85.42
41688;BME280;27371;42.686;23.362;2023-04-05T00:26:17;162244.75;;;0.17;85.08
41688;BME280;27371;42.686;23.362;2023-04-05T00:28:43;162291.19;;;0.35;85.22
41688;BME280;27371;42.686;23.362;2023-04-05T00:31:11;162297.81;;;0.37;85.09
41688;BME280;27371;42.686;23.362;2023-04-05T00:33:39;162293.81;;;0.36;85.24
41688;BME280;27371;42.686;23.362;2023-04-05T00:36:13;162320.38;;;0.46;84.75
41688;BME280;27371;42.686;23.362;2023-04-05T00:38:40;162321.69;;;0.47;84.26
41688;BME280;27371;42.686;23.362;2023-04-05T00:41:12;162316.41;;;0.44;84.50
41688;BME280;27371;42.686;23.362;2023-04-05T00:43:39;162304.47;;;0.40;83.06
41688;BME280;27371;42.686;23.362;2023-04-05T00:46:06;162259.34;;;0.22;82.98
41688;BME280;27371;42.686;23.362;2023-04-05T00:48:33;162240.75;;;0.15;83.31
41688;BME280;27371;42.686;23.362;2023-04-05T00:50:59;162232.78;;;0.12;83.49
41688;BME280;27371;42.686;23.362;2023-04-05T00:53:25;162231.47;;;0.12;83.71
41688;BME280;27371;42.686;23.362;2023-04-05T00:55:54;162243.38;;;0.16;84.24
41688;BME280;27371;42.686;23.362;2023-04-05T00:58:28;162238.09;;;0.14;83.71
41688;BME280;27371;42.686;23.362;2023-04-05T01:01:17;162254.03;;;0.20;84.33
41688;BME280;27371;42.686;23.362;2023-04-05T01:03:58;162226.16;;;0.10;84.30
41688;BME280;27371;42.686;23.362;2023-04-05T01:06:52;162238.09;;;0.14;84.46
41688;BME280;27371;42.686;23.362;2023-04-05T01:09:42;162231.47;;;0.12;84.79
41688;BME280;27371;42.686;23.362;2023-04-05T01:12:16;162236.78;;;0.14;84.86
41688;BME280;27371;42.686;23.362;2023-04-05T01:14:49;162219.50;;;0.07;84.75
41688;BME280;27371;42.686;23.362;2023-04-05T01:17:20;162255.34;;;0.21;84.56
41688;BME280;27371;42.686;23.362;2023-04-05T01:19:52;162257.97;;;0.22;84.43
41688;BME280;27371;42.686;23.362;2023-04-05T01:25:48;162273.94;;;0.28;83.88
41688;BME280;27371;42.686;23.362;2023-04-05T01:33:43;162321.69;;;0.47;83.66
41688;BME280;27371;42.686;23.362;2023-04-05T01:36:23;162327.03;;;0.49;83.08
41688;BME280;27371;42.686;23.362;2023-04-05T01:38:52;162309.78;;;0.42;82.76
41688;BME280;27371;42.686;23.362;2023-04-05T01:41:20;162307.09;;;0.41;82.34
41688;BME280;27371;42.686;23.362;2023-04-05T01:43:48;162323.06;;;0.47;82.56
41688;BME280;27371;42.686;23.362;2023-04-05T01:46:14;162301.81;;;0.39;82.14
41688;BME280;27371;42.686;23.362;2023-04-05T01:48:39;162349.56;;;0.57;82.24
41688;BME280;27371;42.686;23.362;2023-04-05T01:51:07;162356.22;;;0.60;81.99
41688;BME280;27371;42.686;23.362;2023-04-05T01:53:33;162362.88;;;0.62;81.52
41688;BME280;27371;42.686;23.362;2023-04-05T01:56:00;162313.72;;;0.43;81.35
41688;BME280;27371;42.686;23.362;2023-04-05T01:58:26;162311.09;;;0.42;81.02
41688;BME280;27371;42.686;23.362;2023-04-05T02:01:00;162279.22;;;0.30;81.40
41688;BME280;27371;42.686;23.362;2023-04-05T02:03:26;162248.69;;;0.18;81.85
41688;BME280;27371;42.686;23.362;2023-04-05T02:05:51;162252.72;;;0.20;82.02
41688;BME280;27371;42.686;23.362;2023-04-05T02:08:17;162305.78;;;0.40;82.40
41688;BME280;27371;42.686;23.362;2023-04-05T02:10:43;162316.41;;;0.44;81.89
41688;BME280;27371;42.686;23.362;2023-04-05T02:13:09;162316.41;;;0.44;82.02
41688;BME280;27371;42.686;23.362;2023-04-05T02:15:34;162301.81;;;0.39;81.63
41688;BME280;27371;42.686;23.362;2023-04-05T02:18:05;162300.44;;;0.38;81.65
41688;BME280;27371;42.686;23.362;2023-04-05T02:20:32;162279.22;;;0.30;81.78
41688;BME280;27371;42.686;23.362;2023-04-05T02:22:58;162277.91;;;0.30;81.69
41688;BME280;27371;42.686;23.362;2023-04-05T02:25:24;162305.78;;;0.40;81.80
41688;BME280;27371;42.686;23.362;2023-04-05T02:27:50;162296.50;;;0.37;81.96
41688;BME280;27371;42.686;23.362;2023-04-05T02:30:16;162301.81;;;0.39;81.93
41688;BME280;27371;42.686;23.362;2023-04-05T02:32:42;162327.03;;;0.49;82.22
41688;BME280;27371;42.686;23.362;2023-04-05T02:35:08;162324.38;;;0.48;81.21
41688;BME280;27371;42.686;23.362;2023-04-05T02:37:34;162300.44;;;0.38;81.17
41688;BME280;27371;42.686;23.362;2023-04-05T02:40:01;162304.47;;;0.40;81.21
41688;BME280;27371;42.686;23.362;2023-04-05T02:42:28;162301.81;;;0.39;81.33
41688;BME280;27371;42.686;23.362;2023-04-05T02:44:53;162320.38;;;0.46;81.15
41688;BME280;27371;42.686;23.362;2023-04-05T02:47:20;162292.50;;;0.35;81.10
41688;BME280;27371;42.686;23.362;2023-04-05T02:49:49;162297.81;;;0.37;81.29
41688;BME280;27371;42.686;23.362;2023-04-05T02:52:21;162263.31;;;0.24;80.92
41688;BME280;27371;42.686;23.362;2023-04-05T02:54:47;162321.69;;;0.47;80.95
41688;BME280;27371;42.686;23.362;2023-04-05T02:57:13;162321.69;;;0.47;81.43
41688;BME280;27371;42.686;23.362;2023-04-05T02:59:39;162303.13;;;0.39;81.29
41688;BME280;27371;42.686;23.362;2023-04-05T03:02:05;162332.34;;;0.51;81.41
41688;BME280;27371;42.686;23.362;2023-04-05T03:04:35;162308.47;;;0.41;80.57
41688;BME280;27371;42.686;23.362;2023-04-05T03:07:02;162293.81;;;0.36;79.79
41688;BME280;27371;42.686;23.362;2023-04-05T03:09:32;162283.22;;;0.32;81.19
41688;BME280;27371;42.686;23.362;2023-04-05T03:12:03;162255.34;;;0.21;81.21
41688;BME280;27371;42.686;23.362;2023-04-05T03:14:30;162277.91;;;0.30;81.72
41688;BME280;27371;42.686;23.362;2023-04-05T03:16:56;162273.94;;;0.28;82.51
41688;BME280;27371;42.686;23.362;2023-04-05T03:19:23;162299.13;;;0.38;82.58
41688;BME280;27371;42.686;23.362;2023-04-05T03:21:51;162285.84;;;0.33;82.59
41688;BME280;27371;42.686;23.362;2023-04-05T03:24:16;162277.91;;;0.30;82.33
41688;BME280;27371;42.686;23.362;2023-04-05T03:26:42;162280.59;;;0.31;82.59
41688;BME280;27371;42.686;23.362;2023-04-05T03:29:09;162283.22;;;0.32;82.56
41688;BME280;27371;42.686;23.362;2023-04-05T03:31:34;162291.19;;;0.35;82.35
41688;BME280;27371;42.686;23.362;2023-04-05T03:34:00;162257.97;;;0.22;82.58
41688;BME280;27371;42.686;23.362;2023-04-05T03:36:27;162269.94;;;0.27;82.81
41688;BME280;27371;42.686;23.362;2023-04-05T03:38:55;162289.84;;;0.34;82.89
41688;BME280;27371;42.686;23.362;2023-04-05T03:41:32;162279.22;;;0.30;83.33
41688;BME280;27371;42.686;23.362;2023-04-05T03:43:59;162285.84;;;0.33;82.85
41688;BME280;27371;42.686;23.362;2023-04-05T03:46:24;162301.81;;;0.39;82.43
41688;BME280;27371;42.686;23.362;2023-04-05T03:48:49;162275.25;;;0.29;82.46
41688;BME280;27371;42.686;23.362;2023-04-05T03:51:15;162264.63;;;0.25;82.50
41688;BME280;27371;42.686;23.362;2023-04-05T03:53:42;162304.47;;;0.40;82.52
41688;BME280;27371;42.686;23.362;2023-04-05T03:56:10;162329.66;;;0.50;82.63
41688;BME280;27371;42.686;23.362;2023-04-05T03:58:36;162316.41;;;0.44;82.19
41688;BME280;27371;42.686;23.362;2023-04-05T04:01:03;162313.72;;;0.43;83.60
41688;BME280;27371;42.686;23.362;2023-04-05T04:03:28;162259.34;;;0.22;83.72
41688;BME280;27371;42.686;23.362;2023-04-05T04:05:55;162264.63;;;0.25;83.58
41688;BME280;27371;42.686;23.362;2023-04-05T04:08:23;162273.94;;;0.28;84.73
41688;BME280;27371;42.686;23.362;2023-04-05T04:10:50;162265.97;;;0.25;85.46
41688;BME280;27371;42.686;23.362;2023-04-05T04:13:16;162289.84;;;0.34;86.08
41688;BME280;27371;42.686;23.362;2023-04-05T04:15:44;162268.63;;;0.26;86.22
41688;BME280;27371;42.686;23.362;2023-04-05T04:18:09;162252.72;;;0.20;85.89
41688;BME280;27371;42.686;23.362;2023-04-05T04:21:01;162275.25;;;0.29;86.77
41688;BME280;27371;42.686;23.362;2023-04-05T04:23:33;162292.50;;;0.35;85.35
41688;BME280;27371;42.686;23.362;2023-04-05T04:25:59;162342.94;;;0.55;85.40
41688;BME280;27371;42.686;23.362;2023-04-05T04:28:26;162327.03;;;0.49;85.15
41688;BME280;27371;42.686;23.362;2023-04-05T04:30:52;162348.25;;;0.57;84.81
41688;BME280;27371;42.686;23.362;2023-04-05T04:33:17;162321.69;;;0.47;84.72
41688;BME280;27371;42.686;23.362;2023-04-05T04:35:44;162315.06;;;0.44;84.99
41688;BME280;27371;42.686;23.362;2023-04-05T04:38:11;162329.66;;;0.50;85.04
41688;BME280;27371;42.686;23.362;2023-04-05T04:40:43;162361.53;;;0.62;85.02
41688;BME280;27371;42.686;23.362;2023-04-05T04:43:26;162315.06;;;0.44;85.16
41688;BME280;27371;42.686;23.362;2023-04-05T04:45:52;162357.53;;;0.60;84.48
41688;BME280;27371;42.686;23.362;2023-04-05T04:48:19;162346.94;;;0.56;84.14
41688;BME280;27371;42.686;23.362;2023-04-05T04:50:47;162376.16;;;0.68;84.26
41688;BME280;27371;42.686;23.362;2023-04-05T04:53:14;162382.78;;;0.70;84.59
41688;BME280;27371;42.686;23.362;2023-04-05T04:55:42;162390.75;;;0.73;84.79
41688;BME280;27371;42.686;23.362;2023-04-05T04:58:08;162369.50;;;0.65;84.05
41688;BME280;27371;42.686;23.362;2023-04-05T05:00:39;162382.78;;;0.70;83.84
41688;BME280;27371;42.686;23.362;2023-04-05T05:03:06;162396.06;;;0.75;83.81
41688;BME280;27371;42.686;23.362;2023-04-05T05:05:33;162401.41;;;0.77;83.30
41688;BME280;27371;42.686;23.362;2023-04-05T05:07:58;162365.56;;;0.63;82.60
41688;BME280;27371;42.686;23.362;2023-04-05T05:10:24;162404.03;;;0.78;85.46
41688;BME280;27371;42.686;23.362;2023-04-05T05:12:50;162447.84;;;0.95;81.96
41688;BME280;27371;42.686;23.362;2023-04-05T05:15:16;162389.44;;;0.73;81.75
41688;BME280;27371;42.686;23.362;2023-04-05T05:17:43;162401.41;;;0.77;82.53
41688;BME280;27371;42.686;23.362;2023-04-05T05:20:09;162398.72;;;0.76;82.45
41688;BME280;27371;42.686;23.362;2023-04-05T05:22:37;162389.44;;;0.73;82.31
41688;BME280;27371;42.686;23.362;2023-04-05T05:25:05;162361.53;;;0.62;82.33
41688;BME280;27371;42.686;23.362;2023-04-05T05:27:30;162393.38;;;0.74;82.49
41688;BME280;27371;42.686;23.362;2023-04-05T05:30:01;162409.38;;;0.80;82.66
41688;BME280;27371;42.686;23.362;2023-04-05T05:32:27;162430.59;;;0.88;82.54
41688;BME280;27371;42.686;23.362;2023-04-05T05:34:52;162433.25;;;0.89;82.25
41688;BME280;27371;42.686;23.362;2023-04-05T05:37:18;162429.25;;;0.88;82.00
41688;BME280;27371;42.686;23.362;2023-04-05T05:39:44;162377.47;;;0.68;80.24
41688;BME280;27371;42.686;23.362;2023-04-05T05:42:10;162429.25;;;0.88;80.18
41688;BME280;27371;42.686;23.362;2023-04-05T05:44:35;162439.88;;;0.92;80.65
41688;BME280;27371;42.686;23.362;2023-04-05T05:47:01;162422.59;;;0.85;80.70
41688;BME280;27371;42.686;23.362;2023-04-05T05:49:27;162408.00;;;0.80;80.10
41688;BME280;27371;42.686;23.362;2023-04-05T05:51:54;162465.09;;;1.02;80.98
41688;BME280;27371;42.686;23.362;2023-04-05T05:54:21;162434.56;;;0.90;79.90
41688;BME280;27371;42.686;23.362;2023-04-05T05:56:46;162455.81;;;0.98;79.10
41688;BME280;27371;42.686;23.362;2023-04-05T05:59:19;162450.50;;;0.96;78.64
41688;BME280;27371;42.686;23.362;2023-04-05T06:01:45;162462.47;;;1.01;78.45
41688;BME280;27371;42.686;23.362;2023-04-05T06:04:14;162474.44;;;1.05;78.76
41688;BME280;27371;42.686;23.362;2023-04-05T06:06:40;162518.25;;;1.22;78.49
41688;BME280;27371;42.686;23.362;2023-04-05T06:09:10;162510.28;;;1.19;78.10
41688;BME280;27371;42.686;23.362;2023-04-05T06:11:36;162520.88;;;1.23;77.83
41688;BME280;27371;42.686;23.362;2023-04-05T06:14:01;162556.75;;;1.37;77.18
41688;BME280;27371;42.686;23.362;2023-04-05T06:16:27;162576.69;;;1.45;77.60
41688;BME280;27371;42.686;23.362;2023-04-05T06:18:55;162585.97;;;1.48;77.11
41688;BME280;27371;42.686;23.362;2023-04-05T06:21:20;162578.00;;;1.45;75.93
41688;BME280;27371;42.686;23.362;2023-04-05T06:23:46;162588.66;;;1.49;75.64
41688;BME280;27371;42.686;23.362;2023-04-05T06:26:18;162585.97;;;1.48;75.19
41688;BME280;27371;42.686;23.362;2023-04-05T06:28:50;162587.28;;;1.49;75.38
41688;BME280;27371;42.686;23.362;2023-04-05T06:31:15;162591.28;;;1.50;74.28
41688;BME280;27371;42.686;23.362;2023-04-05T06:33:44;162613.88;;;1.59;73.94
41688;BME280;27371;42.686;23.362;2023-04-05T06:36:10;162617.88;;;1.61;73.78
41688;BME280;27371;42.686;23.362;2023-04-05T06:38:35;162702.91;;;1.93;73.78
41688;BME280;27371;42.686;23.362;2023-04-05T06:41:01;162725.50;;;2.02;73.67
41688;BME280;27371;42.686;23.362;2023-04-05T06:43:27;162728.16;;;2.03;73.43
41688;BME280;27371;42.686;23.362;2023-04-05T06:45:56;162722.81;;;2.01;72.49
41688;BME280;27371;42.686;23.362;2023-04-05T06:48:22;162765.34;;;2.17;72.39
41688;BME280;27371;42.686;23.362;2023-04-05T06:50:59;162782.66;;;2.24;71.75
41688;BME280;27371;42.686;23.362;2023-04-05T06:53:25;162797.28;;;2.30;71.71
41688;BME280;27371;42.686;23.362;2023-04-05T06:55:55;162842.47;;;2.47;71.99
41688;BME280;27371;42.686;23.362;2023-04-05T06:58:22;162863.72;;;2.55;70.90
41688;BME280;27371;42.686;23.362;2023-04-05T07:00:48;162879.66;;;2.61;69.88
41688;BME280;27371;42.686;23.362;2023-04-05T07:03:15;162877.03;;;2.60;69.30
41688;BME280;27371;42.686;23.362;2023-04-05T07:05:52;162829.16;;;2.42;68.29
41688;BME280;27371;42.686;23.362;2023-04-05T07:08:19;162875.72;;;2.60;68.54
41688;BME280;27371;42.686;23.362;2023-04-05T07:10:45;162857.06;;;2.53;68.56
41688;BME280;27371;42.686;23.362;2023-04-05T07:13:13;162877.03;;;2.60;69.90
41688;BME280;27371;42.686;23.362;2023-04-05T07:15:40;162841.13;;;2.47;69.35
41688;BME280;27371;42.686;23.362;2023-04-05T07:18:05;162813.22;;;2.36;69.09
41688;BME280;27371;42.686;23.362;2023-04-05T07:20:30;162873.03;;;2.59;68.56
41688;BME280;27371;42.686;23.362;2023-04-05T07:22:56;162887.66;;;2.64;68.79
41688;BME280;27371;42.686;23.362;2023-04-05T07:25:22;162826.50;;;2.41;68.12
41688;BME280;27371;42.686;23.362;2023-04-05T07:27:48;162846.47;;;2.49;68.62
41688;BME280;27371;42.686;23.362;2023-04-05T07:30:14;162859.75;;;2.54;69.04
41688;BME280;27371;42.686;23.362;2023-04-05T07:32:39;162857.06;;;2.53;68.54
41688;BME280;27371;42.686;23.362;2023-04-05T07:35:05;162788.00;;;2.26;68.42
41688;BME280;27371;42.686;23.362;2023-04-05T07:37:31;162807.88;;;2.34;68.43
41688;BME280;27371;42.686;23.362;2023-04-05T07:39:56;162821.19;;;2.39;69.04
41688;BME280;27371;42.686;23.362;2023-04-05T07:42:22;162851.75;;;2.51;68.40
41688;BME280;27371;42.686;23.362;2023-04-05T07:44:48;162890.34;;;2.65;68.78
41688;BME280;27371;42.686;23.362;2023-04-05T07:47:14;162877.03;;;2.60;68.17
41688;BME280;27371;42.686;23.362;2023-04-05T07:49:39;162847.78;;;2.49;68.48
41688;BME280;27371;42.686;23.362;2023-04-05T07:52:04;162878.34;;;2.61;67.99
41688;BME280;27371;42.686;23.362;2023-04-05T07:54:31;162886.31;;;2.64;68.55
41688;BME280;27371;42.686;23.362;2023-04-05T07:56:59;162855.75;;;2.52;68.03
41688;BME280;27371;42.686;23.362;2023-04-05T07:59:25;162866.38;;;2.56;67.50
41688;BME280;27371;42.686;23.362;2023-04-05T08:01:51;162855.75;;;2.52;68.13
41688;BME280;27371;42.686;23.362;2023-04-05T08:04:18;162858.41;;;2.53;68.01
41688;BME280;27371;42.686;23.362;2023-04-05T08:06:45;162851.75;;;2.51;68.28
41688;BME280;27371;42.686;23.362;2023-04-05T08:09:11;162830.47;;;2.42;68.20
41688;BME280;27371;42.686;23.362;2023-04-05T08:11:37;162807.88;;;2.34;68.79
41688;BME280;27371;42.686;23.362;2023-04-05T08:14:02;162823.88;;;2.40;68.56
41688;BME280;27371;42.686;23.362;2023-04-05T08:16:28;162765.34;;;2.17;67.96
41688;BME280;27371;42.686;23.362;2023-04-05T08:18:53;162745.47;;;2.10;68.44
41688;BME280;27371;42.686;23.362;2023-04-05T08:21:19;162788.00;;;2.26;68.98
41688;BME280;27371;42.686;23.362;2023-04-05T08:23:44;162795.97;;;2.29;68.35
41688;BME280;27371;42.686;23.362;2023-04-05T08:26:10;162803.94;;;2.32;68.14
41688;BME280;27371;42.686;23.362;2023-04-05T08:28:35;162809.22;;;2.34;68.47
41688;BME280;27371;42.686;23.362;2023-04-05T08:31:01;162806.56;;;2.33;68.35
41688;BME280;27371;42.686;23.362;2023-04-05T08:33:26;162830.47;;;2.42;68.20
41688;BME280;27371;42.686;23.362;2023-04-05T08:35:55;162807.88;;;2.34;68.63
41688;BME280;27371;42.686;23.362;2023-04-05T08:38:21;162825.19;;;2.40;68.54
41688;BME280;27371;42.686;23.362;2023-04-05T08:40:47;162786.63;;;2.26;68.90
41688;BME280;27371;42.686;23.362;2023-04-05T08:45:51;162801.25;;;2.31;69.43
41688;BME280;27371;42.686;23.362;2023-04-05T08:48:19;162835.81;;;2.44;68.96
41688;BME280;27371;42.686;23.362;2023-04-05T08:50:52;162845.09;;;2.48;68.61
41688;BME280;27371;42.686;23.362;2023-04-05T08:53:21;162829.16;;;2.42;68.76
41688;BME280;27371;42.686;23.362;2023-04-05T08:55:54;162833.16;;;2.43;68.59
41688;BME280;27371;42.686;23.362;2023-04-05T08:58:21;162869.06;;;2.57;68.38
41688;BME280;27371;42.686;23.362;2023-04-05T09:00:49;162894.28;;;2.67;68.65
41688;BME280;27371;42.686;23.362;2023-04-05T09:03:21;162898.31;;;2.68;69.04
41688;BME280;27371;42.686;23.362;2023-04-05T09:05:49;162908.91;;;2.73;68.71
41688;BME280;27371;42.686;23.362;2023-04-05T09:08:16;162923.53;;;2.78;69.06
41688;BME280;27371;42.686;23.362;2023-04-05T09:10:42;162964.78;;;2.94;70.11
41688;BME280;27371;42.686;23.362;2023-04-05T09:13:09;162975.44;;;2.98;70.20
41688;BME280;27371;42.686;23.362;2023-04-05T09:15:36;163036.59;;;3.22;69.00
41688;BME280;27371;42.686;23.362;2023-04-05T09:18:02;163012.66;;;3.12;67.50
41688;BME280;27371;42.686;23.362;2023-04-05T09:20:27;162980.72;;;3.00;67.47
41688;BME280;27371;42.686;23.362;2023-04-05T09:22:55;162988.75;;;3.03;68.00
41688;BME280;27371;42.686;23.362;2023-04-05T09:25:38;162931.56;;;2.81;67.23
41688;BME280;27371;42.686;23.362;2023-04-05T09:28:08;162996.72;;;3.06;66.96
41688;BME280;27371;42.686;23.362;2023-04-05T09:30:37;162974.06;;;2.98;67.16
41688;BME280;27371;42.686;23.362;2023-04-05T09:33:18;163007.34;;;3.10;66.60
41688;BME280;27371;42.686;23.362;2023-04-05T09:35:49;162978.06;;;2.99;66.35
41688;BME280;27371;42.686;23.362;2023-04-05T09:38:16;163029.94;;;3.19;67.09
41688;BME280;27371;42.686;23.362;2023-04-05T09:40:48;163035.25;;;3.21;66.23
41688;BME280;27371;42.686;23.362;2023-04-05T09:43:40;163061.88;;;3.31;65.69
41688;BME280;27371;42.686;23.362;2023-04-05T09:46:27;163076.50;;;3.37;64.51
41688;BME280;27371;42.686;23.362;2023-04-05T09:48:52;163080.47;;;3.39;64.81
41688;BME280;27371;42.686;23.362;2023-04-05T09:51:20;163101.75;;;3.47;65.24
41688;BME280;27371;42.686;23.362;2023-04-05T09:53:56;163151.00;;;3.66;64.87
41688;BME280;27371;42.686;23.362;2023-04-05T09:56:23;163242.81;;;4.01;63.55
41688;BME280;27371;42.686;23.362;2023-04-05T09:58:52;163278.75;;;4.15;63.38
41688;BME280;27371;42.686;23.362;2023-04-05T10:01:18;163274.72;;;4.13;62.01
41688;BME280;27371;42.686;23.362;2023-04-05T10:03:49;163359.91;;;4.46;62.49
41688;BME280;27371;42.686;23.362;2023-04-05T10:06:15;163393.22;;;4.59;61.32
41688;BME280;27371;42.686;23.362;2023-04-05T10:08:41;163431.81;;;4.74;59.88
41688;BME280;27371;42.686;23.362;2023-04-05T10:11:08;163401.19;;;4.62;59.60
41688;BME280;27371;42.686;23.362;2023-04-05T10:13:35;163363.94;;;4.47;58.93
41688;BME280;27371;42.686;23.362;2023-04-05T10:16:04;163402.53;;;4.62;58.31
41688;BME280;27371;42.686;23.362;2023-04-05T10:18:40;163465.09;;;4.86;57.50
41688;BME280;27371;42.686;23.362;2023-04-05T10:21:14;163441.16;;;4.77;56.31
41688;BME280;27371;42.686;23.362;2023-04-05T10:23:45;163491.75;;;4.97;56.71
41688;BME280;27371;42.686;23.362;2023-04-05T10:26:39;163499.75;;;5.00;56.16
41688;BME280;27371;42.686;23.362;2023-04-05T10:29:16;163446.44;;;4.79;56.22
41688;BME280;27371;42.686;23.362;2023-04-05T10:31:49;163459.78;;;4.84;57.21
41688;BME280;27371;42.686;23.362;2023-04-05T10:37:43;163461.09;;;4.85;56.84
41688;BME280;27371;42.686;23.362;2023-04-05T10:40:17;163529.03;;;5.11;57.69
41688;BME280;27371;42.686;23.362;2023-04-05T10:42:45;163531.69;;;5.12;57.28
41688;BME280;27371;42.686;23.362;2023-04-05T10:45:12;163499.75;;;5.00;56.94
41688;BME280;27371;42.686;23.362;2023-04-05T10:47:46;163470.44;;;4.88;56.50
41688;BME280;27371;42.686;23.362;2023-04-05T10:50:32;163385.22;;;4.56;57.67
41688;BME280;27371;42.686;23.362;2023-04-05T10:52:59;163406.53;;;4.64;57.97
41688;BME280;27371;42.686;23.362;2023-04-05T10:55:25;163438.47;;;4.76;57.33
41688;BME280;27371;42.686;23.362;2023-04-05T10:57:52;163443.81;;;4.78;56.55
41688;BME280;27371;42.686;23.362;2023-04-05T11:00:19;163382.53;;;4.55;56.05
41688;BME280;27371;42.686;23.362;2023-04-05T11:02:53;163390.56;;;4.58;56.25
41688;BME280;27371;42.686;23.362;2023-04-05T11:05:40;163390.56;;;4.58;57.18
41688;BME280;27371;42.686;23.362;2023-04-05T11:08:24;163398.56;;;4.61;56.39
41688;BME280;27371;42.686;23.362;2023-04-05T11:10:52;163418.47;;;4.68;55.87
41688;BME280;27371;42.686;23.362;2023-04-05T11:13:18;163397.19;;;4.60;56.24
41688;BME280;27371;42.686;23.362;2023-04-05T11:15:43;163413.19;;;4.66;56.22
41688;BME280;27371;42.686;23.362;2023-04-05T11:23:19;163497.03;;;4.99;55.54
41688;BME280;27371;42.686;23.362;2023-04-05T11:25:50;163471.78;;;4.89;55.76
41688;BME280;27371;42.686;23.362;2023-04-05T11:28:37;163582.28;;;5.31;55.27
41688;BME280;27371;42.686;23.362;2023-04-05T11:31:14;163571.66;;;5.27;54.47
41688;BME280;27371;42.686;23.362;2023-04-05T11:36:11;163465.09;;;4.86;55.41
41688;BME280;27371;42.686;23.362;2023-04-05T11:38:37;163486.41;;;4.95;56.31
41688;BME280;27371;42.686;23.362;2023-04-05T11:41:16;163513.06;;;5.05;55.62
41688;BME280;27371;42.686;23.362;2023-04-05T11:43:46;163533.00;;;5.12;54.42
41688;BME280;27371;42.686;23.362;2023-04-05T11:46:17;163513.06;;;5.05;53.86
41688;BME280;27371;42.686;23.362;2023-04-05T11:48:51;163469.13;;;4.88;53.62
41688;BME280;27371;42.686;23.362;2023-04-05T11:51:20;163521.03;;;5.08;53.52
41688;BME280;27371;42.686;23.362;2023-04-05T11:53:54;163495.72;;;4.98;54.31
41688;BME280;27371;42.686;23.362;2023-04-05T11:56:19;163525.00;;;5.09;53.42
41688;BME280;27371;42.686;23.362;2023-04-05T11:58:45;163506.41;;;5.02;53.38
41688;BME280;27371;42.686;23.362;2023-04-05T12:01:10;163538.34;;;5.14;54.32
41688;BME280;27371;42.686;23.362;2023-04-05T12:03:36;163557.00;;;5.22;54.67
41688;BME280;27371;42.686;23.362;2023-04-05T12:06:04;163596.94;;;5.37;53.97
41688;BME280;27371;42.686;23.362;2023-04-05T12:08:45;163588.94;;;5.34;54.15
41688;BME280;27371;42.686;23.362;2023-04-05T12:11:35;163600.94;;;5.39;54.29
41688;BME280;27371;42.686;23.362;2023-04-05T12:14:05;163594.28;;;5.36;54.99
41688;BME280;27371;42.686;23.362;2023-04-05T12:16:30;163550.34;;;5.19;54.59
41688;BME280;27371;42.686;23.362;2023-04-05T12:18:58;163574.28;;;5.28;54.88
41688;BME280;27371;42.686;23.362;2023-04-05T12:21:30;163574.28;;;5.28;55.16
41688;BME280;27371;42.686;23.362;2023-04-05T12:23:57;163584.97;;;5.32;55.52
41688;BME280;27371;42.686;23.362;2023-04-05T12:26:22;163627.59;;;5.49;55.86
41688;BME280;27371;42.686;23.362;2023-04-05T12:28:56;163611.59;;;5.43;56.08
41688;BME280;27371;42.686;23.362;2023-04-05T12:31:41;163622.25;;;5.47;55.49
41688;BME280;27371;42.686;23.362;2023-04-05T12:34:07;163602.28;;;5.39;56.04
41688;BME280;27371;42.686;23.362;2023-04-05T12:36:36;163602.28;;;5.39;56.83
41688;BME280;27371;42.686;23.362;2023-04-05T12:39:07;163578.31;;;5.30;56.18
41688;BME280;27371;42.686;23.362;2023-04-05T12:41:34;163630.25;;;5.50;56.81
41688;BME280;27371;42.686;23.362;2023-04-05T12:44:26;163640.88;;;5.54;56.15
41688;BME280;27371;42.686;23.362;2023-04-05T12:47:02;163663.56;;;5.63;56.67
41688;BME280;27371;42.686;23.362;2023-04-05T12:49:36;163670.25;;;5.65;56.39
41688;BME280;27371;42.686;23.362;2023-04-05T12:52:03;163630.25;;;5.50;56.03
41688;BME280;27371;42.686;23.362;2023-04-05T12:54:29;163571.66;;;5.27;56.26
41688;BME280;27371;42.686;23.362;2023-04-05T12:57:03;163534.38;;;5.13;56.51
41688;BME280;27371;42.686;23.362;2023-04-05T12:59:35;163473.09;;;4.89;56.38
41688;BME280;27371;42.686;23.362;2023-04-05T13:02:13;163482.41;;;4.93;57.10
41688;BME280;27371;42.686;23.362;2023-04-05T13:04:39;163449.13;;;4.80;55.61
41688;BME280;27371;42.686;23.362;2023-04-05T13:07:04;163414.50;;;4.67;56.79
41688;BME280;27371;42.686;23.362;2023-04-05T13:09:39;163407.84;;;4.64;55.90
41688;BME280;27371;42.686;23.362;2023-04-05T13:12:05;163394.53;;;4.59;56.08
41688;BME280;27371;42.686;23.362;2023-04-05T13:14:32;163419.84;;;4.69;55.94
41688;BME280;27371;42.686;23.362;2023-04-05T13:16:58;163461.09;;;4.85;55.86
41688;BME280;27371;42.686;23.362;2023-04-05T13:19:24;163501.06;;;5.00;55.28
41688;BME280;27371;42.686;23.362;2023-04-05T13:21:50;163495.72;;;4.98;54.53